sensor_id;sensor_type;location;lat;lon;timestamp;P1;durP1;ratioP1;P2;durP2;ratioP2
8139;SDS011;4111;50.972;7.072;2024-03-25T00:01:00;10.73;;;3.20;;
8139;SDS011;4111;50.972;7.072;2024-03-25T00:03:25;10.00;;;3.57;;
8139;SDS011;4111;50.972;7.072;2024-03-25T00:05:51;16.30;;;3.77;;
8139;SDS011;4111;50.972;7.072;2024-03-25T00:08:16;12.33;;;3.30;;
8139;SDS011;4111;50.972;7.072;2024-03-25T00:10:42;12.77;;;3.73;;
8139;SDS011;4111;50.972;7.072;2024-03-25T00:13:07;15.17;;;3.97;;
8139;SDS011;4111;50.972;7.072;2024-03-25T00:15:33;18.30;;;4.30;;
8139;SDS011;4111;50.972;7.072;2024-03-25T00:17:59;17.17;;;3.87;;
8139;SDS011;4111;50.972;7.072;2024-03-25T00:20:24;12.97;;;3.60;;
8139;SDS011;4111;50.972;7.072;2024-03-25T00:22:50;16.37;;;4.27;;
8139;SDS011;4111;50.972;7.072;2024-03-25T00:25:15;14.93;;;3.67;;
8139;SDS011;4111;50.972;7.072;2024-03-25T00:27:42;14.10;;;3.73;;
8139;SDS011;4111;50.972;7.072;2024-03-25T00:30:08;13.30;;;3.53;;
8139;SDS011;4111;50.972;7.072;2024-03-25T00:32:34;13.13;;;4.13;;
8139;SDS011;4111;50.972;7.072;2024-03-25T00:35:00;13.73;;;4.33;;
8139;SDS011;4111;50.972;7.072;2024-03-25T00:37:25;13.50;;;4.77;;
8139;SDS011;4111;50.972;7.072;2024-03-25T00:39:51;14.63;;;4.63;;
8139;SDS011;4111;50.972;7.072;2024-03-25T00:42:17;15.30;;;3.97;;
8139;SDS011;4111;50.972;7.072;2024-03-25T00:44:42;14.40;;;4.00;;
8139;SDS011;4111;50.972;7.072;2024-03-25T00:47:08;9.93;;;3.93;;
8139;SDS011;4111;50.972;7.072;2024-03-25T00:49:33;10.03;;;3.73;;
8139;SDS011;4111;50.972;7.072;2024-03-25T00:52:00;14.40;;;4.13;;
8139;SDS011;4111;50.972;7.072;2024-03-25T00:54:25;11.27;;;4.20;;
8139;SDS011;4111;50.972;7.072;2024-03-25T00:56:50;13.73;;;3.57;;
8139;SDS011;4111;50.972;7.072;2024-03-25T00:59:17;12.40;;;4.07;;
8139;SDS011;4111;50.972;7.072;2024-03-25T01:01:42;13.47;;;4.70;;
8139;SDS011;4111;50.972;7.072;2024-03-25T01:04:08;10.10;;;4.23;;
8139;SDS011;4111;50.972;7.072;2024-03-25T01:06:33;13.13;;;5.03;;
8139;SDS011;4111;50.972;7.072;2024-03-25T01:08:59;15.57;;;4.30;;
8139;SDS011;4111;50.972;7.072;2024-03-25T01:11:25;14.23;;;4.30;;
8139;SDS011;4111;50.972;7.072;2024-03-25T01:13:50;12.07;;;4.03;;
8139;SDS011;4111;50.972;7.072;2024-03-25T01:16:16;12.10;;;4.37;;
8139;SDS011;4111;50.972;7.072;2024-03-25T01:18:41;16.37;;;5.07;;
8139;SDS011;4111;50.972;7.072;2024-03-25T01:21:07;13.47;;;4.60;;
8139;SDS011;4111;50.972;7.072;2024-03-25T01:23:32;12.07;;;4.60;;
8139;SDS011;4111;50.972;7.072;2024-03-25T01:25:58;14.47;;;3.90;;
8139;SDS011;4111;50.972;7.072;2024-03-25T01:28:23;14.27;;;4.03;;
8139;SDS011;4111;50.972;7.072;2024-03-25T01:30:49;12.60;;;4.40;;
8139;SDS011;4111;50.972;7.072;2024-03-25T01:33:15;13.40;;;4.53;;
8139;SDS011;4111;50.972;7.072;2024-03-25T01:35:41;13.00;;;3.63;;
8139;SDS011;4111;50.972;7.072;2024-03-25T01:38:07;13.93;;;4.07;;
8139;SDS011;4111;50.972;7.072;2024-03-25T01:40:32;13.60;;;3.93;;
8139;SDS011;4111;50.972;7.072;2024-03-25T01:43:00;14.20;;;4.10;;
8139;SDS011;4111;50.972;7.072;2024-03-25T01:45:28;17.90;;;3.70;;
8139;SDS011;4111;50.972;7.072;2024-03-25T01:48:06;12.83;;;3.90;;
8139;SDS011;4111;50.972;7.072;2024-03-25T01:50:36;12.63;;;3.77;;
8139;SDS011;4111;50.972;7.072;2024-03-25T01:53:04;18.40;;;4.33;;
8139;SDS011;4111;50.972;7.072;2024-03-25T01:55:30;13.70;;;3.87;;
8139;SDS011;4111;50.972;7.072;2024-03-25T01:57:59;14.57;;;4.73;;
8139;SDS011;4111;50.972;7.072;2024-03-25T02:00:25;16.80;;;4.33;;
8139;SDS011;4111;50.972;7.072;2024-03-25T02:02:52;17.40;;;4.17;;
8139;SDS011;4111;50.972;7.072;2024-03-25T02:05:19;10.60;;;4.20;;
8139;SDS011;4111;50.972;7.072;2024-03-25T02:07:45;14.60;;;3.70;;
8139;SDS011;4111;50.972;7.072;2024-03-25T02:10:12;17.40;;;4.33;;
8139;SDS011;4111;50.972;7.072;2024-03-25T02:12:41;17.63;;;4.33;;
8139;SDS011;4111;50.972;7.072;2024-03-25T02:15:08;14.60;;;4.07;;
8139;SDS011;4111;50.972;7.072;2024-03-25T02:17:34;21.07;;;4.80;;
8139;SDS011;4111;50.972;7.072;2024-03-25T02:20:01;22.50;;;4.70;;
8139;SDS011;4111;50.972;7.072;2024-03-25T02:22:28;15.30;;;3.63;;
8139;SDS011;4111;50.972;7.072;2024-03-25T02:24:55;20.63;;;4.13;;
8139;SDS011;4111;50.972;7.072;2024-03-25T02:27:22;15.30;;;4.37;;
8139;SDS011;4111;50.972;7.072;2024-03-25T02:29:49;16.00;;;4.00;;
8139;SDS011;4111;50.972;7.072;2024-03-25T02:32:14;18.30;;;3.80;;
8139;SDS011;4111;50.972;7.072;2024-03-25T02:34:42;14.97;;;4.30;;
8139;SDS011;4111;50.972;7.072;2024-03-25T02:37:11;21.67;;;4.57;;
8139;SDS011;4111;50.972;7.072;2024-03-25T02:39:37;10.33;;;3.73;;
8139;SDS011;4111;50.972;7.072;2024-03-25T02:42:03;12.17;;;3.77;;
8139;SDS011;4111;50.972;7.072;2024-03-25T02:44:29;13.20;;;3.43;;
8139;SDS011;4111;50.972;7.072;2024-03-25T02:46:56;17.40;;;4.07;;
8139;SDS011;4111;50.972;7.072;2024-03-25T02:49:22;16.00;;;4.47;;
8139;SDS011;4111;50.972;7.072;2024-03-25T02:51:48;13.93;;;3.80;;
8139;SDS011;4111;50.972;7.072;2024-03-25T02:54:13;14.60;;;4.47;;
8139;SDS011;4111;50.972;7.072;2024-03-25T02:56:39;12.27;;;3.83;;
8139;SDS011;4111;50.972;7.072;2024-03-25T02:59:05;14.80;;;3.93;;
8139;SDS011;4111;50.972;7.072;2024-03-25T03:01:31;19.43;;;3.73;;
8139;SDS011;4111;50.972;7.072;2024-03-25T03:03:57;14.70;;;4.53;;
8139;SDS011;4111;50.972;7.072;2024-03-25T03:06:22;14.87;;;3.83;;
8139;SDS011;4111;50.972;7.072;2024-03-25T03:08:47;10.93;;;3.30;;
8139;SDS011;4111;50.972;7.072;2024-03-25T03:11:13;15.20;;;3.97;;
8139;SDS011;4111;50.972;7.072;2024-03-25T03:13:38;12.07;;;3.33;;
8139;SDS011;4111;50.972;7.072;2024-03-25T03:16:04;15.93;;;3.93;;
8139;SDS011;4111;50.972;7.072;2024-03-25T03:18:30;12.67;;;3.70;;
8139;SDS011;4111;50.972;7.072;2024-03-25T03:20:55;14.90;;;3.57;;
8139;SDS011;4111;50.972;7.072;2024-03-25T03:23:22;20.53;;;4.17;;
8139;SDS011;4111;50.972;7.072;2024-03-25T03:25:48;17.80;;;4.57;;
8139;SDS011;4111;50.972;7.072;2024-03-25T03:28:14;18.50;;;4.13;;
8139;SDS011;4111;50.972;7.072;2024-03-25T03:30:40;12.67;;;4.13;;
8139;SDS011;4111;50.972;7.072;2024-03-25T03:33:06;14.97;;;4.10;;
8139;SDS011;4111;50.972;7.072;2024-03-25T03:35:32;11.23;;;4.03;;
8139;SDS011;4111;50.972;7.072;2024-03-25T03:37:58;16.47;;;4.17;;
8139;SDS011;4111;50.972;7.072;2024-03-25T03:40:24;16.57;;;4.10;;
8139;SDS011;4111;50.972;7.072;2024-03-25T03:42:49;13.33;;;3.93;;
8139;SDS011;4111;50.972;7.072;2024-03-25T03:45:15;14.87;;;4.70;;
8139;SDS011;4111;50.972;7.072;2024-03-25T03:47:40;14.70;;;3.90;;
8139;SDS011;4111;50.972;7.072;2024-03-25T03:50:06;15.70;;;4.60;;
8139;SDS011;4111;50.972;7.072;2024-03-25T03:52:33;18.17;;;4.90;;
8139;SDS011;4111;50.972;7.072;2024-03-25T03:54:58;11.33;;;3.83;;
8139;SDS011;4111;50.972;7.072;2024-03-25T03:57:25;19.23;;;4.50;;
8139;SDS011;4111;50.972;7.072;2024-03-25T03:59:51;16.57;;;4.77;;
8139;SDS011;4111;50.972;7.072;2024-03-25T04:02:17;17.80;;;4.47;;
8139;SDS011;4111;50.972;7.072;2024-03-25T04:04:43;23.00;;;4.80;;
8139;SDS011;4111;50.972;7.072;2024-03-25T04:07:08;14.83;;;4.77;;
8139;SDS011;4111;50.972;7.072;2024-03-25T04:09:33;19.50;;;4.20;;
8139;SDS011;4111;50.972;7.072;2024-03-25T04:11:59;13.27;;;4.37;;
8139;SDS011;4111;50.972;7.072;2024-03-25T04:14:26;17.13;;;4.43;;
8139;SDS011;4111;50.972;7.072;2024-03-25T04:16:52;19.60;;;4.77;;
8139;SDS011;4111;50.972;7.072;2024-03-25T04:19:24;17.27;;;4.53;;
8139;SDS011;4111;50.972;7.072;2024-03-25T04:21:50;17.37;;;4.00;;
8139;SDS011;4111;50.972;7.072;2024-03-25T04:24:16;13.67;;;4.20;;
8139;SDS011;4111;50.972;7.072;2024-03-25T04:26:44;13.63;;;4.10;;
8139;SDS011;4111;50.972;7.072;2024-03-25T04:29:09;14.40;;;3.57;;
8139;SDS011;4111;50.972;7.072;2024-03-25T04:31:35;19.53;;;4.27;;
8139;SDS011;4111;50.972;7.072;2024-03-25T04:34:02;19.67;;;4.47;;
8139;SDS011;4111;50.972;7.072;2024-03-25T04:36:29;16.27;;;4.40;;
8139;SDS011;4111;50.972;7.072;2024-03-25T04:38:55;18.03;;;4.13;;
8139;SDS011;4111;50.972;7.072;2024-03-25T04:41:21;16.07;;;3.73;;
8139;SDS011;4111;50.972;7.072;2024-03-25T04:43:46;16.50;;;4.30;;
8139;SDS011;4111;50.972;7.072;2024-03-25T04:46:12;17.47;;;3.70;;
8139;SDS011;4111;50.972;7.072;2024-03-25T04:48:37;18.50;;;4.60;;
8139;SDS011;4111;50.972;7.072;2024-03-25T04:51:03;24.67;;;5.13;;
8139;SDS011;4111;50.972;7.072;2024-03-25T04:53:28;15.30;;;4.20;;
8139;SDS011;4111;50.972;7.072;2024-03-25T04:55:55;19.17;;;4.37;;
8139;SDS011;4111;50.972;7.072;2024-03-25T04:58:20;20.37;;;4.10;;
8139;SDS011;4111;50.972;7.072;2024-03-25T05:00:46;18.80;;;4.27;;
8139;SDS011;4111;50.972;7.072;2024-03-25T05:03:12;14.37;;;4.20;;
8139;SDS011;4111;50.972;7.072;2024-03-25T05:05:37;14.93;;;3.80;;
8139;SDS011;4111;50.972;7.072;2024-03-25T05:08:02;12.30;;;3.40;;
8139;SDS011;4111;50.972;7.072;2024-03-25T05:10:28;16.30;;;4.40;;
8139;SDS011;4111;50.972;7.072;2024-03-25T05:12:54;16.77;;;3.60;;
8139;SDS011;4111;50.972;7.072;2024-03-25T05:15:20;16.37;;;3.97;;
8139;SDS011;4111;50.972;7.072;2024-03-25T05:17:46;15.53;;;4.57;;
8139;SDS011;4111;50.972;7.072;2024-03-25T05:20:12;15.27;;;4.30;;
8139;SDS011;4111;50.972;7.072;2024-03-25T05:22:37;10.60;;;3.97;;
8139;SDS011;4111;50.972;7.072;2024-03-25T05:25:03;15.27;;;3.97;;
8139;SDS011;4111;50.972;7.072;2024-03-25T05:27:29;18.03;;;4.17;;
8139;SDS011;4111;50.972;7.072;2024-03-25T05:29:54;18.17;;;4.47;;
8139;SDS011;4111;50.972;7.072;2024-03-25T05:32:19;17.03;;;4.17;;
8139;SDS011;4111;50.972;7.072;2024-03-25T05:34:47;12.27;;;4.13;;
8139;SDS011;4111;50.972;7.072;2024-03-25T05:37:13;15.47;;;3.33;;
8139;SDS011;4111;50.972;7.072;2024-03-25T05:39:39;17.07;;;4.27;;
8139;SDS011;4111;50.972;7.072;2024-03-25T05:42:04;15.33;;;3.73;;
8139;SDS011;4111;50.972;7.072;2024-03-25T05:44:30;8.37;;;3.47;;
8139;SDS011;4111;50.972;7.072;2024-03-25T05:46:55;16.23;;;4.27;;
8139;SDS011;4111;50.972;7.072;2024-03-25T05:49:21;13.93;;;4.07;;
8139;SDS011;4111;50.972;7.072;2024-03-25T05:51:46;11.47;;;3.03;;
8139;SDS011;4111;50.972;7.072;2024-03-25T05:54:13;14.63;;;3.80;;
8139;SDS011;4111;50.972;7.072;2024-03-25T05:56:38;15.63;;;4.13;;
8139;SDS011;4111;50.972;7.072;2024-03-25T05:59:04;14.90;;;4.20;;
8139;SDS011;4111;50.972;7.072;2024-03-25T06:01:29;18.07;;;4.60;;
8139;SDS011;4111;50.972;7.072;2024-03-25T06:03:55;13.60;;;4.00;;
8139;SDS011;4111;50.972;7.072;2024-03-25T06:06:20;12.83;;;3.87;;
8139;SDS011;4111;50.972;7.072;2024-03-25T06:08:46;11.27;;;4.47;;
8139;SDS011;4111;50.972;7.072;2024-03-25T06:11:11;13.23;;;4.50;;
8139;SDS011;4111;50.972;7.072;2024-03-25T06:13:37;8.60;;;3.60;;
8139;SDS011;4111;50.972;7.072;2024-03-25T06:16:02;12.20;;;3.60;;
8139;SDS011;4111;50.972;7.072;2024-03-25T06:18:28;15.77;;;4.00;;
8139;SDS011;4111;50.972;7.072;2024-03-25T06:20:54;13.23;;;3.37;;
8139;SDS011;4111;50.972;7.072;2024-03-25T06:23:23;24.30;;;7.60;;
8139;SDS011;4111;50.972;7.072;2024-03-25T06:25:53;21.13;;;6.13;;
8139;SDS011;4111;50.972;7.072;2024-03-25T06:28:19;16.83;;;5.73;;
8139;SDS011;4111;50.972;7.072;2024-03-25T06:30:49;16.33;;;6.27;;
8139;SDS011;4111;50.972;7.072;2024-03-25T06:33:34;18.40;;;5.50;;
8139;SDS011;4111;50.972;7.072;2024-03-25T06:36:18;16.03;;;6.07;;
8139;SDS011;4111;50.972;7.072;2024-03-25T06:38:44;17.67;;;6.07;;
8139;SDS011;4111;50.972;7.072;2024-03-25T06:41:10;25.33;;;6.63;;
8139;SDS011;4111;50.972;7.072;2024-03-25T06:43:36;15.23;;;5.80;;
8139;SDS011;4111;50.972;7.072;2024-03-25T06:46:03;12.17;;;5.87;;
8139;SDS011;4111;50.972;7.072;2024-03-25T06:48:29;14.13;;;5.97;;
8139;SDS011;4111;50.972;7.072;2024-03-25T06:50:55;19.77;;;6.50;;
8139;SDS011;4111;50.972;7.072;2024-03-25T06:53:22;22.07;;;6.40;;
8139;SDS011;4111;50.972;7.072;2024-03-25T06:55:54;14.93;;;5.50;;
8139;SDS011;4111;50.972;7.072;2024-03-25T06:58:21;15.03;;;6.20;;
8139;SDS011;4111;50.972;7.072;2024-03-25T07:00:48;13.27;;;6.10;;
8139;SDS011;4111;50.972;7.072;2024-03-25T07:03:16;17.60;;;6.83;;
8139;SDS011;4111;50.972;7.072;2024-03-25T07:05:44;19.77;;;6.50;;
8139;SDS011;4111;50.972;7.072;2024-03-25T07:08:11;21.60;;;6.80;;
8139;SDS011;4111;50.972;7.072;2024-03-25T07:10:37;17.93;;;6.40;;
8139;SDS011;4111;50.972;7.072;2024-03-25T07:13:03;11.90;;;5.73;;
8139;SDS011;4111;50.972;7.072;2024-03-25T07:15:29;15.10;;;5.03;;
8139;SDS011;4111;50.972;7.072;2024-03-25T07:17:54;17.53;;;5.70;;
8139;SDS011;4111;50.972;7.072;2024-03-25T07:20:19;17.30;;;5.73;;
8139;SDS011;4111;50.972;7.072;2024-03-25T07:22:47;14.10;;;4.97;;
8139;SDS011;4111;50.972;7.072;2024-03-25T07:25:13;15.07;;;5.20;;
8139;SDS011;4111;50.972;7.072;2024-03-25T07:27:39;17.77;;;6.13;;
8139;SDS011;4111;50.972;7.072;2024-03-25T07:30:06;14.27;;;5.03;;
8139;SDS011;4111;50.972;7.072;2024-03-25T07:32:32;13.07;;;5.23;;
8139;SDS011;4111;50.972;7.072;2024-03-25T07:34:59;9.93;;;4.77;;
8139;SDS011;4111;50.972;7.072;2024-03-25T07:37:25;11.97;;;4.83;;
8139;SDS011;4111;50.972;7.072;2024-03-25T07:39:50;15.07;;;4.80;;
8139;SDS011;4111;50.972;7.072;2024-03-25T07:42:16;15.73;;;4.90;;
8139;SDS011;4111;50.972;7.072;2024-03-25T07:44:42;13.03;;;4.80;;
8139;SDS011;4111;50.972;7.072;2024-03-25T07:47:07;14.37;;;4.97;;
8139;SDS011;4111;50.972;7.072;2024-03-25T07:49:33;14.77;;;5.50;;
8139;SDS011;4111;50.972;7.072;2024-03-25T07:51:59;16.73;;;5.00;;
8139;SDS011;4111;50.972;7.072;2024-03-25T07:54:25;14.40;;;4.83;;
8139;SDS011;4111;50.972;7.072;2024-03-25T07:56:52;15.53;;;4.30;;
8139;SDS011;4111;50.972;7.072;2024-03-25T07:59:18;11.10;;;4.10;;
8139;SDS011;4111;50.972;7.072;2024-03-25T08:01:44;16.17;;;5.13;;
8139;SDS011;4111;50.972;7.072;2024-03-25T08:04:09;11.63;;;4.70;;
8139;SDS011;4111;50.972;7.072;2024-03-25T08:06:35;9.30;;;4.17;;
8139;SDS011;4111;50.972;7.072;2024-03-25T08:09:00;11.97;;;5.00;;
8139;SDS011;4111;50.972;7.072;2024-03-25T08:11:26;11.90;;;4.70;;
8139;SDS011;4111;50.972;7.072;2024-03-25T08:13:52;17.47;;;4.70;;
8139;SDS011;4111;50.972;7.072;2024-03-25T08:16:17;12.30;;;4.50;;
8139;SDS011;4111;50.972;7.072;2024-03-25T08:18:45;10.73;;;4.37;;
8139;SDS011;4111;50.972;7.072;2024-03-25T08:21:10;9.10;;;4.27;;
8139;SDS011;4111;50.972;7.072;2024-03-25T08:23:36;12.67;;;4.57;;
8139;SDS011;4111;50.972;7.072;2024-03-25T08:26:01;11.43;;;4.17;;
8139;SDS011;4111;50.972;7.072;2024-03-25T08:28:27;13.70;;;4.67;;
8139;SDS011;4111;50.972;7.072;2024-03-25T08:30:52;15.40;;;4.23;;
8139;SDS011;4111;50.972;7.072;2024-03-25T08:33:18;14.27;;;5.10;;
8139;SDS011;4111;50.972;7.072;2024-03-25T08:35:43;18.87;;;4.40;;
8139;SDS011;4111;50.972;7.072;2024-03-25T08:38:09;16.53;;;4.27;;
8139;SDS011;4111;50.972;7.072;2024-03-25T08:40:34;14.63;;;3.80;;
8139;SDS011;4111;50.972;7.072;2024-03-25T08:43:00;12.80;;;3.40;;
8139;SDS011;4111;50.972;7.072;2024-03-25T08:45:25;16.73;;;3.70;;
8139;SDS011;4111;50.972;7.072;2024-03-25T08:47:51;10.60;;;3.83;;
8139;SDS011;4111;50.972;7.072;2024-03-25T08:50:16;11.40;;;3.93;;
8139;SDS011;4111;50.972;7.072;2024-03-25T08:52:42;14.97;;;4.30;;
8139;SDS011;4111;50.972;7.072;2024-03-25T08:55:07;12.87;;;3.40;;
8139;SDS011;4111;50.972;7.072;2024-03-25T08:57:33;9.90;;;3.40;;
8139;SDS011;4111;50.972;7.072;2024-03-25T08:59:58;10.70;;;3.70;;
8139;SDS011;4111;50.972;7.072;2024-03-25T09:02:24;12.73;;;3.27;;
8139;SDS011;4111;50.972;7.072;2024-03-25T09:04:49;13.03;;;3.67;;
8139;SDS011;4111;50.972;7.072;2024-03-25T09:07:15;14.80;;;3.97;;
8139;SDS011;4111;50.972;7.072;2024-03-25T09:09:40;13.23;;;3.60;;
8139;SDS011;4111;50.972;7.072;2024-03-25T09:12:25;14.17;;;3.50;;
8139;SDS011;4111;50.972;7.072;2024-03-25T09:14:50;11.20;;;3.63;;
8139;SDS011;4111;50.972;7.072;2024-03-25T09:17:16;7.90;;;2.83;;
8139;SDS011;4111;50.972;7.072;2024-03-25T09:19:42;10.77;;;3.07;;
8139;SDS011;4111;50.972;7.072;2024-03-25T09:22:08;11.40;;;3.53;;
8139;SDS011;4111;50.972;7.072;2024-03-25T09:24:33;11.17;;;3.67;;
8139;SDS011;4111;50.972;7.072;2024-03-25T09:26:59;9.83;;;2.83;;
8139;SDS011;4111;50.972;7.072;2024-03-25T09:29:24;14.27;;;3.77;;
8139;SDS011;4111;50.972;7.072;2024-03-25T09:31:50;11.83;;;3.27;;
8139;SDS011;4111;50.972;7.072;2024-03-25T09:34:15;12.77;;;3.30;;
8139;SDS011;4111;50.972;7.072;2024-03-25T09:36:41;15.70;;;3.30;;
8139;SDS011;4111;50.972;7.072;2024-03-25T09:39:06;10.93;;;3.77;;
8139;SDS011;4111;50.972;7.072;2024-03-25T09:41:33;7.27;;;2.90;;
8139;SDS011;4111;50.972;7.072;2024-03-25T09:44:01;11.87;;;3.27;;
8139;SDS011;4111;50.972;7.072;2024-03-25T09:46:30;9.67;;;3.20;;
8139;SDS011;4111;50.972;7.072;2024-03-25T09:48:56;15.83;;;3.53;;
8139;SDS011;4111;50.972;7.072;2024-03-25T09:51:21;12.37;;;3.53;;
8139;SDS011;4111;50.972;7.072;2024-03-25T09:53:47;7.93;;;3.30;;
8139;SDS011;4111;50.972;7.072;2024-03-25T09:56:13;16.57;;;3.63;;
8139;SDS011;4111;50.972;7.072;2024-03-25T09:58:39;8.70;;;2.97;;
8139;SDS011;4111;50.972;7.072;2024-03-25T10:01:05;11.27;;;3.23;;
8139;SDS011;4111;50.972;7.072;2024-03-25T10:03:30;9.50;;;3.00;;
8139;SDS011;4111;50.972;7.072;2024-03-25T10:05:56;9.43;;;2.93;;
8139;SDS011;4111;50.972;7.072;2024-03-25T10:08:22;7.07;;;2.63;;
8139;SDS011;4111;50.972;7.072;2024-03-25T10:10:47;8.77;;;3.13;;
8139;SDS011;4111;50.972;7.072;2024-03-25T10:13:17;12.67;;;3.27;;
8139;SDS011;4111;50.972;7.072;2024-03-25T10:15:42;12.73;;;3.33;;
8139;SDS011;4111;50.972;7.072;2024-03-25T10:18:09;8.07;;;2.87;;
8139;SDS011;4111;50.972;7.072;2024-03-25T10:20:37;7.67;;;3.10;;
8139;SDS011;4111;50.972;7.072;2024-03-25T10:23:02;9.87;;;3.13;;
8139;SDS011;4111;50.972;7.072;2024-03-25T10:25:30;8.20;;;3.03;;
8139;SDS011;4111;50.972;7.072;2024-03-25T10:27:59;10.40;;;3.33;;
8139;SDS011;4111;50.972;7.072;2024-03-25T10:30:26;11.03;;;2.90;;
8139;SDS011;4111;50.972;7.072;2024-03-25T10:33:02;10.53;;;2.47;;
8139;SDS011;4111;50.972;7.072;2024-03-25T10:35:34;6.20;;;2.90;;
8139;SDS011;4111;50.972;7.072;2024-03-25T10:38:04;5.90;;;2.70;;
8139;SDS011;4111;50.972;7.072;2024-03-25T10:40:31;9.87;;;2.97;;
8139;SDS011;4111;50.972;7.072;2024-03-25T10:43:05;7.83;;;2.90;;
8139;SDS011;4111;50.972;7.072;2024-03-25T10:45:51;8.77;;;2.90;;
8139;SDS011;4111;50.972;7.072;2024-03-25T10:48:22;9.60;;;2.70;;
8139;SDS011;4111;50.972;7.072;2024-03-25T10:50:54;5.70;;;2.97;;
8139;SDS011;4111;50.972;7.072;2024-03-25T10:53:21;7.17;;;2.80;;
8139;SDS011;4111;50.972;7.072;2024-03-25T10:55:49;8.50;;;2.37;;
8139;SDS011;4111;50.972;7.072;2024-03-25T10:58:21;6.83;;;2.50;;
8139;SDS011;4111;50.972;7.072;2024-03-25T11:00:51;8.27;;;2.50;;
8139;SDS011;4111;50.972;7.072;2024-03-25T11:03:22;6.33;;;2.50;;
8139;SDS011;4111;50.972;7.072;2024-03-25T11:05:48;8.03;;;2.63;;
8139;SDS011;4111;50.972;7.072;2024-03-25T11:08:15;7.53;;;2.83;;
8139;SDS011;4111;50.972;7.072;2024-03-25T11:10:43;7.63;;;2.13;;
8139;SDS011;4111;50.972;7.072;2024-03-25T11:13:10;4.90;;;2.27;;
8139;SDS011;4111;50.972;7.072;2024-03-25T11:15:43;8.90;;;2.83;;
8139;SDS011;4111;50.972;7.072;2024-03-25T11:18:13;7.87;;;2.50;;
8139;SDS011;4111;50.972;7.072;2024-03-25T11:20:40;8.57;;;2.47;;
8139;SDS011;4111;50.972;7.072;2024-03-25T11:23:12;6.60;;;2.70;;
8139;SDS011;4111;50.972;7.072;2024-03-25T11:25:39;7.70;;;2.17;;
8139;SDS011;4111;50.972;7.072;2024-03-25T11:28:05;7.37;;;2.57;;
8139;SDS011;4111;50.972;7.072;2024-03-25T11:30:31;5.93;;;2.33;;
8139;SDS011;4111;50.972;7.072;2024-03-25T11:32:58;7.33;;;2.30;;
8139;SDS011;4111;50.972;7.072;2024-03-25T11:35:26;4.43;;;2.50;;
8139;SDS011;4111;50.972;7.072;2024-03-25T11:37:52;4.77;;;2.30;;
8139;SDS011;4111;50.972;7.072;2024-03-25T11:40:18;8.77;;;2.87;;
8139;SDS011;4111;50.972;7.072;2024-03-25T11:42:44;7.83;;;2.43;;
8139;SDS011;4111;50.972;7.072;2024-03-25T11:45:20;4.87;;;2.23;;
8139;SDS011;4111;50.972;7.072;2024-03-25T11:47:46;6.10;;;2.17;;
8139;SDS011;4111;50.972;7.072;2024-03-25T11:50:14;4.53;;;1.90;;
8139;SDS011;4111;50.972;7.072;2024-03-25T11:52:41;5.20;;;2.10;;
8139;SDS011;4111;50.972;7.072;2024-03-25T11:55:07;6.60;;;2.27;;
8139;SDS011;4111;50.972;7.072;2024-03-25T11:57:37;4.47;;;2.20;;
8139;SDS011;4111;50.972;7.072;2024-03-25T12:00:03;7.43;;;2.57;;
8139;SDS011;4111;50.972;7.072;2024-03-25T12:02:30;9.80;;;2.43;;
8139;SDS011;4111;50.972;7.072;2024-03-25T12:04:56;4.37;;;2.10;;
8139;SDS011;4111;50.972;7.072;2024-03-25T12:07:22;5.57;;;2.37;;
8139;SDS011;4111;50.972;7.072;2024-03-25T12:09:47;8.03;;;2.63;;
8139;SDS011;4111;50.972;7.072;2024-03-25T12:12:32;6.63;;;2.30;;
8139;SDS011;4111;50.972;7.072;2024-03-25T12:14:58;8.07;;;2.50;;
8139;SDS011;4111;50.972;7.072;2024-03-25T12:17:24;4.00;;;1.90;;
8139;SDS011;4111;50.972;7.072;2024-03-25T12:20:02;11.23;;;2.43;;
8139;SDS011;4111;50.972;7.072;2024-03-25T12:22:32;4.57;;;2.07;;
8139;SDS011;4111;50.972;7.072;2024-03-25T12:25:02;6.63;;;2.37;;
8139;SDS011;4111;50.972;7.072;2024-03-25T12:27:41;5.07;;;2.23;;
8139;SDS011;4111;50.972;7.072;2024-03-25T12:30:07;9.97;;;2.17;;
8139;SDS011;4111;50.972;7.072;2024-03-25T12:35:07;9.77;;;2.70;;
8139;SDS011;4111;50.972;7.072;2024-03-25T12:37:40;7.27;;;2.53;;
8139;SDS011;4111;50.972;7.072;2024-03-25T12:40:06;7.17;;;2.40;;
8139;SDS011;4111;50.972;7.072;2024-03-25T12:42:35;6.07;;;2.20;;
8139;SDS011;4111;50.972;7.072;2024-03-25T12:45:01;3.67;;;2.13;;
8139;SDS011;4111;50.972;7.072;2024-03-25T12:47:28;4.17;;;1.93;;
8139;SDS011;4111;50.972;7.072;2024-03-25T12:49:54;5.07;;;1.87;;
8139;SDS011;4111;50.972;7.072;2024-03-25T12:52:19;15.13;;;5.70;;
8139;SDS011;4111;50.972;7.072;2024-03-25T12:54:46;6.57;;;2.40;;
8139;SDS011;4111;50.972;7.072;2024-03-25T12:57:12;8.37;;;2.60;;
8139;SDS011;4111;50.972;7.072;2024-03-25T12:59:38;6.90;;;2.57;;
8139;SDS011;4111;50.972;7.072;2024-03-25T13:02:03;7.40;;;2.47;;
8139;SDS011;4111;50.972;7.072;2024-03-25T13:04:29;6.17;;;2.60;;
8139;SDS011;4111;50.972;7.072;2024-03-25T13:06:55;5.70;;;2.40;;
8139;SDS011;4111;50.972;7.072;2024-03-25T13:09:20;7.00;;;3.40;;
8139;SDS011;4111;50.972;7.072;2024-03-25T13:11:46;6.20;;;2.77;;
8139;SDS011;4111;50.972;7.072;2024-03-25T13:14:12;6.60;;;2.60;;
8139;SDS011;4111;50.972;7.072;2024-03-25T13:16:41;6.13;;;2.60;;
8139;SDS011;4111;50.972;7.072;2024-03-25T13:19:06;6.60;;;2.37;;
8139;SDS011;4111;50.972;7.072;2024-03-25T13:21:32;5.53;;;2.40;;
8139;SDS011;4111;50.972;7.072;2024-03-25T13:23:58;5.20;;;2.43;;
8139;SDS011;4111;50.972;7.072;2024-03-25T13:26:23;5.30;;;2.13;;
8139;SDS011;4111;50.972;7.072;2024-03-25T13:28:49;3.07;;;1.97;;
8139;SDS011;4111;50.972;7.072;2024-03-25T13:31:14;6.37;;;2.40;;
8139;SDS011;4111;50.972;7.072;2024-03-25T13:33:41;5.27;;;1.93;;
8139;SDS011;4111;50.972;7.072;2024-03-25T13:36:06;4.97;;;2.37;;
8139;SDS011;4111;50.972;7.072;2024-03-25T13:38:32;3.87;;;2.00;;
8139;SDS011;4111;50.972;7.072;2024-03-25T13:41:01;3.97;;;1.97;;
8139;SDS011;4111;50.972;7.072;2024-03-25T13:43:28;4.37;;;1.93;;
8139;SDS011;4111;50.972;7.072;2024-03-25T13:45:53;5.13;;;2.33;;
8139;SDS011;4111;50.972;7.072;2024-03-25T13:48:19;2.50;;;2.03;;
8139;SDS011;4111;50.972;7.072;2024-03-25T13:50:44;4.47;;;1.93;;
8139;SDS011;4111;50.972;7.072;2024-03-25T13:53:10;2.63;;;2.00;;
8139;SDS011;4111;50.972;7.072;2024-03-25T13:55:35;2.37;;;1.70;;
8139;SDS011;4111;50.972;7.072;2024-03-25T13:58:01;3.47;;;1.80;;
8139;SDS011;4111;50.972;7.072;2024-03-25T14:00:27;3.90;;;2.17;;
8139;SDS011;4111;50.972;7.072;2024-03-25T14:02:56;4.47;;;1.97;;
8139;SDS011;4111;50.972;7.072;2024-03-25T14:05:22;4.53;;;2.03;;
8139;SDS011;4111;50.972;7.072;2024-03-25T14:07:51;5.60;;;2.20;;
8139;SDS011;4111;50.972;7.072;2024-03-25T14:10:16;7.00;;;2.63;;
8139;SDS011;4111;50.972;7.072;2024-03-25T14:12:42;4.70;;;3.00;;
8139;SDS011;4111;50.972;7.072;2024-03-25T14:15:08;7.57;;;3.93;;
8139;SDS011;4111;50.972;7.072;2024-03-25T14:17:33;2.60;;;2.00;;
8139;SDS011;4111;50.972;7.072;2024-03-25T14:19:59;5.47;;;2.10;;
8139;SDS011;4111;50.972;7.072;2024-03-25T14:22:24;2.67;;;2.03;;
8139;SDS011;4111;50.972;7.072;2024-03-25T14:24:51;4.03;;;1.83;;
8139;SDS011;4111;50.972;7.072;2024-03-25T14:27:21;2.73;;;1.80;;
8139;SDS011;4111;50.972;7.072;2024-03-25T14:29:47;4.40;;;1.97;;
8139;SDS011;4111;50.972;7.072;2024-03-25T14:32:13;4.33;;;1.80;;
8139;SDS011;4111;50.972;7.072;2024-03-25T14:34:38;5.03;;;2.00;;
8139;SDS011;4111;50.972;7.072;2024-03-25T14:37:03;4.33;;;1.90;;
8139;SDS011;4111;50.972;7.072;2024-03-25T14:39:29;4.83;;;1.73;;
8139;SDS011;4111;50.972;7.072;2024-03-25T14:41:54;3.53;;;2.23;;
8139;SDS011;4111;50.972;7.072;2024-03-25T14:44:20;3.77;;;1.87;;
8139;SDS011;4111;50.972;7.072;2024-03-25T14:46:46;5.53;;;3.10;;
8139;SDS011;4111;50.972;7.072;2024-03-25T14:49:12;4.73;;;2.03;;
8139;SDS011;4111;50.972;7.072;2024-03-25T14:51:37;5.00;;;2.22;;
8139;SDS011;4111;50.972;7.072;2024-03-25T14:54:03;3.60;;;2.00;;
8139;SDS011;4111;50.972;7.072;2024-03-25T14:56:29;7.47;;;1.70;;
8139;SDS011;4111;50.972;7.072;2024-03-25T14:58:55;2.37;;;1.73;;
8139;SDS011;4111;50.972;7.072;2024-03-25T15:01:20;5.40;;;2.10;;
8139;SDS011;4111;50.972;7.072;2024-03-25T15:03:46;3.07;;;1.60;;